createdAt,value
2022-08-17T00:01:56.407Z,101136.38
2022-08-17T00:03:58.200Z,101140.09
2022-08-17T00:06:13.706Z,101135.88
2022-08-17T00:08:19.977Z,101145.06
2022-08-17T00:10:22.751Z,101150.69
2022-08-17T00:12:43.683Z,101147.34
2022-08-17T00:14:45.693Z,101149.25
2022-08-17T00:16:56.796Z,101147.44
2022-08-17T00:19:07.617Z,101147.63
2022-08-17T00:21:11.091Z,101146.03
2022-08-17T00:23:15.188Z,101146.13
2022-08-17T00:25:19.927Z,101149.66
2022-08-17T00:27:21.538Z,101146.13
2022-08-17T00:29:23.049Z,101143.53
2022-08-17T00:31:24.994Z,101142.59
2022-08-17T00:33:29.718Z,101145.25
2022-08-17T00:35:31.442Z,101141.81
2022-08-17T00:37:32.959Z,101144.59
2022-08-17T00:39:34.478Z,101142.00
2022-08-17T00:41:36.086Z,101143.91
2022-08-17T00:43:47.240Z,101142.19
2022-08-17T00:45:49.605Z,101139.50
2022-08-17T00:47:51.192Z,101138.75
2022-08-17T00:49:53.159Z,101143.31
2022-08-17T00:52:10.808Z,101146.09
2022-08-17T00:54:16.196Z,101151.63
2022-08-17T00:56:23.882Z,101146.38
2022-08-17T00:58:30.402Z,101146.47
2022-08-17T01:00:42.697Z,101151.03
2022-08-17T01:02:46.968Z,101150.19
2022-08-17T01:04:52.174Z,101152.94
2022-08-17T01:06:55.769Z,101147.69
2022-08-17T01:08:59.507Z,101152.28
2022-08-17T01:11:02.321Z,101148.06
2022-08-17T01:13:05.067Z,101147.28
2022-08-17T01:15:07.151Z,101140.31
2022-08-17T01:17:09.147Z,101150.25
2022-08-17T01:19:17.108Z,101155.69
2022-08-17T01:21:41.587Z,101161.19
2022-08-17T01:23:43.250Z,101157.63
2022-08-17T01:25:45.492Z,101153.25
2022-08-17T01:27:50.935Z,101148.84
2022-08-17T01:29:58.589Z,101151.59
2022-08-17T01:32:03.757Z,101153.50
2022-08-17T01:34:09.105Z,101148.16
2022-08-17T01:36:10.634Z,101147.47
2022-08-17T01:38:12.151Z,101148.53
2022-08-17T01:40:22.966Z,101145.84
2022-08-17T01:42:33.685Z,101153.88
2022-08-17T01:44:35.253Z,101143.34
2022-08-17T01:46:39.998Z,101141.63
2022-08-17T01:48:42.972Z,101143.44
2022-08-17T01:50:46.551Z,101140.75
2022-08-17T01:52:54.181Z,101141.81
2022-08-17T01:54:56.473Z,101148.00
2022-08-17T01:56:57.965Z,101141.28
2022-08-17T01:58:59.495Z,101145.88
2022-08-17T02:01:01.763Z,101137.94
2022-08-17T02:03:04.139Z,101134.41
2022-08-17T02:05:07.610Z,101135.25
2022-08-17T02:07:09.160Z,101132.69
2022-08-17T02:09:16.728Z,101137.16
2022-08-17T02:11:20.786Z,101135.44
2022-08-17T02:13:22.473Z,101135.53
2022-08-17T02:15:24.020Z,101128.44
2022-08-17T02:17:26.450Z,101125.78
2022-08-17T02:19:27.978Z,101128.53
2022-08-17T02:21:29.588Z,101122.34
2022-08-17T02:23:34.791Z,101120.59
2022-08-17T02:25:38.560Z,101120.53
2022-08-17T02:27:40.129Z,101116.13
2022-08-17T02:29:41.663Z,101116.13
2022-08-17T02:31:43.860Z,101113.53
2022-08-17T02:33:45.352Z,101115.34
2022-08-17T02:35:58.442Z,101115.34
2022-08-17T02:38:01.925Z,101116.28
2022-08-17T02:40:04.452Z,101109.19
2022-08-17T02:42:06.818Z,101111.88
2022-08-17T02:44:08.654Z,101111.00
2022-08-17T02:46:10.126Z,101118.16
2022-08-17T02:48:11.768Z,101115.50
2022-08-17T02:50:16.705Z,101109.28
2022-08-17T02:52:18.191Z,101101.25
2022-08-17T02:54:42.410Z,101107.53
2022-08-17T02:56:44.145Z,101102.25
2022-08-17T02:58:46.316Z,101104.94
2022-08-17T03:00:48.526Z,101101.41
2022-08-17T03:02:51.247Z,101100.63
2022-08-17T03:04:52.898Z,101100.72
2022-08-17T03:06:54.475Z,101109.78
2022-08-17T03:08:55.978Z,101114.25
2022-08-17T03:10:57.666Z,101112.72
2022-08-17T03:12:59.871Z,101114.69
2022-08-17T03:15:11.778Z,101111.25
2022-08-17T03:17:17.487Z,101112.28
2022-08-17T03:19:19.074Z,101106.84
2022-08-17T03:21:21.046Z,101103.16
2022-08-17T03:23:25.315Z,101104.09
2022-08-17T03:25:30.907Z,101096.94
2022-08-17T03:27:32.433Z,101102.19
2022-08-17T03:29:33.926Z,101103.91
2022-08-17T03:31:37.064Z,101107.38
2022-08-17T03:33:38.772Z,101102.78
2022-08-17T03:35:40.823Z,101113.41
2022-08-17T03:37:42.483Z,101112.34
2022-08-17T03:39:44.042Z,101106.06
2022-08-17T03:41:45.568Z,101111.22
2022-08-17T03:43:47.061Z,101108.56
2022-08-17T03:46:27.374Z,101097.88
2022-08-17T03:48:47.850Z,101098.91
2022-08-17T03:51:12.758Z,101096.31
2022-08-17T03:53:36.192Z,101108.81
2022-08-17T03:55:56.523Z,101109.78
2022-08-17T03:57:58.004Z,101111.50
2022-08-17T03:59:59.824Z,101108.81
2022-08-17T04:02:09.681Z,101110.47
2022-08-17T04:04:12.033Z,101111.22
2022-08-17T04:06:14.347Z,101112.00
2022-08-17T04:08:15.845Z,101116.34
2022-08-17T04:10:17.365Z,101113.69
2022-08-17T04:12:21.239Z,101113.63
2022-08-17T04:14:23.007Z,101111.72
2022-08-17T04:16:25.499Z,101101.78
2022-08-17T04:18:27.061Z,101110.59
2022-08-17T04:20:29.231Z,101109.72
2022-08-17T04:22:34.196Z,101108.88
2022-08-17T04:24:36.210Z,101104.38
2022-08-17T04:26:53.314Z,101109.66
2022-08-17T04:28:58.494Z,101115.75
2022-08-17T04:31:00.031Z,101114.03
2022-08-17T04:33:08.784Z,101113.09
2022-08-17T04:35:10.365Z,101114.81
2022-08-17T04:37:11.845Z,101114.72
2022-08-17T04:39:13.360Z,101119.81
2022-08-17T04:41:34.029Z,101130.41
2022-08-17T04:43:37.319Z,101124.03
2022-08-17T04:45:41.062Z,101134.53
2022-08-17T04:47:57.116Z,101129.19
2022-08-17T04:50:01.667Z,101132.66
2022-08-17T04:52:04.667Z,101136.88
2022-08-17T04:54:13.017Z,101138.31
2022-08-17T04:56:18.127Z,101140.53
2022-08-17T04:58:21.224Z,101142.88
2022-08-17T05:00:25.726Z,101141.56
2022-08-17T05:02:27.313Z,101145.50
2022-08-17T05:04:34.372Z,101151.34
2022-08-17T05:06:36.982Z,101146.59
2022-08-17T05:08:38.981Z,101150.91
2022-08-17T05:10:45.126Z,101153.38
2022-08-17T05:12:48.907Z,101157.69
2022-08-17T05:14:50.451Z,101153.28
2022-08-17T05:16:51.968Z,101155.03
2022-08-17T05:18:53.501Z,101161.19
2022-08-17T05:20:55.199Z,101152.19
2022-08-17T05:23:07.213Z,101152.91
2022-08-17T05:25:09.472Z,101149.06
2022-08-17T05:27:12.812Z,101148.03
2022-08-17T05:29:20.392Z,101153.19
2022-08-17T05:31:22.031Z,101155.69
2022-08-17T05:33:28.919Z,101157.31
2022-08-17T05:35:32.723Z,101157.22
2022-08-17T05:37:34.258Z,101146.41
2022-08-17T05:39:35.780Z,101159.63
2022-08-17T05:41:37.253Z,101154.94
2022-08-17T05:43:41.718Z,101154.72
2022-08-17T05:45:55.691Z,101155.22
2022-08-17T05:47:57.841Z,101154.97
2022-08-17T05:50:00.894Z,101162.63
2022-08-17T05:52:19.792Z,101160.41
2022-08-17T05:54:51.821Z,101165.47
2022-08-17T05:57:34.932Z,101166.25
2022-08-17T05:59:48.487Z,101167.69
2022-08-17T06:02:09.422Z,101166.81
2022-08-17T06:04:26.247Z,101162.13
2022-08-17T06:06:36.533Z,101160.09
2022-08-17T06:08:51.764Z,101169.47
2022-08-17T06:11:06.777Z,101164.03
2022-08-17T06:13:15.608Z,101161.97
2022-08-17T06:15:54.164Z,101159.19
2022-08-17T06:17:59.758Z,101167.22
2022-08-17T06:20:10.291Z,101164.34
2022-08-17T06:22:16.654Z,101161.47
2022-08-17T06:24:24.303Z,101156.88
2022-08-17T06:26:39.654Z,101160.13
2022-08-17T06:28:50.460Z,101159.91
2022-08-17T06:31:02.179Z,101166.69
2022-08-17T06:33:16.601Z,101165.63
2022-08-17T06:35:32.016Z,101172.31
2022-08-17T06:37:51.552Z,101176.31
2022-08-17T06:40:09.803Z,101164.38
2022-08-17T06:43:06.179Z,101171.91
2022-08-17T06:44:54.973Z,101160.56
2022-08-17T06:47:28.172Z,101163.38
2022-08-17T06:49:40.131Z,101161.03
2022-08-17T06:51:48.626Z,101160.38
2022-08-17T06:54:02.332Z,101159.09
2022-08-17T06:56:10.636Z,101162.09
2022-08-17T06:58:15.880Z,101155.56
2022-08-17T07:00:22.348Z,101156.84
2022-08-17T07:02:55.336Z,101167.16
2022-08-17T07:05:01.725Z,101165.25
2022-08-17T07:07:26.789Z,101164.19
2022-08-17T07:09:31.221Z,101169.25
2022-08-17T07:11:43.602Z,101159.25
2022-08-17T07:13:57.021Z,101164.19
2022-08-17T07:16:13.175Z,101161.84
2022-08-17T07:18:14.689Z,101160.66
2022-08-17T07:20:20.624Z,101164.72
2022-08-17T07:23:00.596Z,101162.69
2022-08-17T07:25:09.103Z,101162.38
2022-08-17T07:27:32.816Z,101160.44
2022-08-17T07:29:43.934Z,101166.38
2022-08-17T07:31:45.934Z,101164.22
2022-08-17T07:34:02.153Z,101158.50
2022-08-17T07:36:04.055Z,101159.25
2022-08-17T07:38:26.343Z,101159.69
2022-08-17T07:40:36.018Z,101155.56
2022-08-17T07:42:40.704Z,101156.09
2022-08-17T07:44:54.598Z,101158.09
2022-08-17T07:47:15.794Z,101157.69
2022-08-17T07:49:22.079Z,101156.25
2022-08-17T07:51:39.605Z,101157.63
2022-08-17T07:53:41.634Z,101159.56
2022-08-17T07:55:44.881Z,101161.56
2022-08-17T07:57:56.791Z,101157.34
2022-08-17T08:00:01.630Z,101156.91
2022-08-17T08:02:28.957Z,101163.41
2022-08-17T08:04:59.198Z,101167.25
2022-08-17T08:07:01.407Z,101167.16
2022-08-17T08:09:03.060Z,101173.47
2022-08-17T08:11:15.536Z,101166.41
2022-08-17T08:13:26.164Z,101163.13
2022-08-17T08:15:36.704Z,101163.75
2022-08-17T08:18:00.306Z,101170.19
2022-08-17T08:20:42.496Z,101164.19
2022-08-17T08:22:52.522Z,101167.97
2022-08-17T08:25:07.942Z,101172.63
2022-08-17T08:27:18.436Z,101170.31
2022-08-17T08:29:55.200Z,101176.00
2022-08-17T08:32:25.119Z,101174.78
2022-08-17T08:35:00.931Z,101167.28
2022-08-17T08:37:16.584Z,101169.25
2022-08-17T08:39:29.076Z,101181.63
2022-08-17T08:41:50.853Z,101177.56
2022-08-17T08:44:07.929Z,101175.22
2022-08-17T08:46:44.637Z,101174.09
2022-08-17T08:48:59.657Z,101175.97
2022-08-17T08:51:14.203Z,101183.03
2022-08-17T08:53:40.188Z,101181.91
2022-08-17T08:55:51.847Z,101181.66
2022-08-17T08:58:07.694Z,101187.72
2022-08-17T09:00:35.898Z,101186.81
2022-08-17T09:03:08.381Z,101186.09
2022-08-17T09:05:14.958Z,101190.13
2022-08-17T09:07:23.023Z,101192.75
2022-08-17T09:09:39.591Z,101194.25
2022-08-17T09:12:08.835Z,101191.78
2022-08-17T09:14:32.628Z,101184.88
2022-08-17T09:16:50.197Z,101193.22
2022-08-17T09:18:59.866Z,101191.25
2022-08-17T09:21:10.662Z,101190.25
2022-08-17T09:23:22.742Z,101195.72
2022-08-17T09:25:31.834Z,101188.78
2022-08-17T09:27:48.007Z,101188.38
2022-08-17T09:29:57.725Z,101192.28
2022-08-17T09:32:03.802Z,101190.22
2022-08-17T09:34:10.634Z,101192.25
2022-08-17T09:36:20.859Z,101188.84
2022-08-17T09:38:43.281Z,101184.56
2022-08-17T09:40:57.207Z,101182.00
2022-08-17T09:43:01.463Z,101176.03
2022-08-17T09:45:15.356Z,101179.19
2022-08-17T09:47:47.542Z,101167.53
2022-08-17T09:50:00.363Z,101174.13
2022-08-17T09:52:31.949Z,101175.59
2022-08-17T09:54:39.522Z,101168.47
2022-08-17T09:57:28.552Z,101170.16
2022-08-17T09:59:46.031Z,101168.34
2022-08-17T10:02:25.218Z,101166.31
2022-08-17T10:04:30.576Z,101160.72
2022-08-17T10:06:43.411Z,101159.75
2022-08-17T10:08:57.459Z,101163.56
2022-08-17T10:11:07.940Z,101158.13
2022-08-17T10:13:25.681Z,101156.91
2022-08-17T10:15:37.988Z,101160.47
2022-08-17T10:17:45.253Z,101153.19
2022-08-17T10:20:06.245Z,101161.16
2022-08-17T10:22:42.910Z,101153.63
2022-08-17T10:25:23.843Z,101158.59
2022-08-17T10:27:44.962Z,101161.41
2022-08-17T10:29:52.926Z,101157.78
2022-08-17T10:32:09.168Z,101157.44
2022-08-17T10:34:22.589Z,101154.22
2022-08-17T10:36:37.857Z,101150.53
2022-08-17T10:38:59.057Z,101145.19
2022-08-17T10:41:27.002Z,101147.72
2022-08-17T10:43:34.404Z,101142.28
2022-08-17T10:46:30.289Z,101142.28
2022-08-17T10:48:36.684Z,101153.66
2022-08-17T10:50:57.593Z,101152.69
2022-08-17T10:52:59.313Z,101148.06
2022-08-17T10:55:13.595Z,101147.81
2022-08-17T10:57:23.836Z,101143.28
2022-08-17T10:59:37.325Z,101145.19
2022-08-17T11:01:38.746Z,101141.81
2022-08-17T11:03:54.675Z,101141.34
2022-08-17T11:06:25.985Z,101146.09
2022-08-17T11:08:30.344Z,101138.47
2022-08-17T11:11:09.707Z,101134.31
2022-08-17T11:13:23.144Z,101134.16
2022-08-17T11:16:04.735Z,101135.22
2022-08-17T11:18:20.415Z,101136.97
2022-08-17T11:20:54.029Z,101135.00
2022-08-17T11:23:25.857Z,101127.50
2022-08-17T11:25:40.620Z,101125.50
2022-08-17T11:27:43.971Z,101133.56
2022-08-17T11:30:02.916Z,101127.03
2022-08-17T11:32:15.069Z,101131.47
2022-08-17T11:34:23.128Z,101130.06
2022-08-17T11:36:56.398Z,101129.81
2022-08-17T11:39:35.544Z,101124.31
2022-08-17T11:42:19.950Z,101119.13
2022-08-17T11:44:30.697Z,101120.53
2022-08-17T11:47:09.193Z,101125.28
2022-08-17T11:49:41.149Z,101126.78
2022-08-17T11:52:01.161Z,101121.41
2022-08-17T11:54:40.908Z,101123.47
2022-08-17T11:56:48.712Z,101114.56
2022-08-17T11:58:50.232Z,101117.81
2022-08-17T12:00:56.630Z,101118.47
2022-08-17T12:03:31.903Z,101117.56
2022-08-17T12:05:35.002Z,101114.97
2022-08-17T12:07:42.440Z,101116.16
2022-08-17T12:09:47.930Z,101113.06
2022-08-17T12:12:04.645Z,101112.41
2022-08-17T12:14:45.084Z,101113.81
2022-08-17T12:16:58.638Z,101112.78
2022-08-17T12:19:03.390Z,101111.94
2022-08-17T12:21:07.535Z,101114.00
2022-08-17T12:23:24.853Z,101109.72
2022-08-17T12:25:46.619Z,101108.03
2022-08-17T12:28:05.238Z,101115.03
2022-08-17T12:30:14.582Z,101099.34
2022-08-17T12:32:20.052Z,101107.72
2022-08-17T12:34:40.801Z,101099.50
2022-08-17T12:36:42.600Z,101103.88
2022-08-17T12:38:53.204Z,101116.00
2022-08-17T12:40:58.005Z,101116.22
2022-08-17T12:43:07.845Z,101096.72
2022-08-17T12:45:29.460Z,101106.41
2022-08-17T12:47:31.890Z,101099.97
2022-08-17T12:49:39.316Z,101099.63
2022-08-17T12:51:46.234Z,101093.91
2022-08-17T12:53:55.110Z,101090.47
2022-08-17T12:55:58.676Z,101095.94
2022-08-17T12:58:01.816Z,101091.84
2022-08-17T13:00:21.976Z,101086.28
2022-08-17T13:03:13.506Z,101085.25
2022-08-17T13:05:23.186Z,101081.34
2022-08-17T13:07:36.062Z,101070.56
2022-08-17T13:09:40.668Z,101071.41
2022-08-17T13:11:55.083Z,101070.88
2022-08-17T13:14:09.804Z,101066.59
2022-08-17T13:16:14.420Z,101069.31
2022-08-17T13:18:34.437Z,101073.41
2022-08-17T13:20:37.042Z,101073.72
2022-08-17T13:22:39.177Z,101062.72
2022-08-17T13:24:53.008Z,101063.75
2022-08-17T13:27:07.760Z,101066.47
2022-08-17T13:29:33.380Z,101067.84
2022-08-17T13:31:50.406Z,101067.00
2022-08-17T13:34:19.198Z,101068.25
2022-08-17T13:36:30.144Z,101063.16
2022-08-17T13:39:16.311Z,101060.41
2022-08-17T13:41:33.632Z,101057.03
2022-08-17T13:43:49.500Z,101056.72
2022-08-17T13:45:52.580Z,101048.88
2022-08-17T13:48:16.988Z,101055.50
2022-08-17T13:50:21.894Z,101052.63
2022-08-17T13:52:41.390Z,101051.06
2022-08-17T13:54:51.832Z,101053.47
2022-08-17T13:57:23.816Z,101047.84
2022-08-17T13:59:48.238Z,101052.78
2022-08-17T14:01:57.705Z,101054.53
2022-08-17T14:04:01.933Z,101042.63
2022-08-17T14:06:05.234Z,101045.50
2022-08-17T14:08:07.341Z,101055.22
2022-08-17T14:10:17.800Z,101040.41
2022-08-17T14:12:22.105Z,101041.59
2022-08-17T14:14:24.469Z,101036.66
2022-08-17T14:16:25.970Z,101038.16
2022-08-17T14:18:31.247Z,101037.69
2022-08-17T14:20:49.458Z,101039.25
2022-08-17T14:22:53.932Z,101036.34
2022-08-17T14:24:55.523Z,101029.53
2022-08-17T14:26:59.316Z,101032.59
2022-08-17T14:29:00.792Z,101026.47
2022-08-17T14:31:02.935Z,101027.81
2022-08-17T14:33:05.836Z,101035.28
2022-08-17T14:35:09.949Z,101026.09
2022-08-17T14:37:12.265Z,101021.50
2022-08-17T14:39:15.165Z,101023.72
2022-08-17T14:41:22.049Z,101021.31
2022-08-17T14:43:24.591Z,101018.22
2022-08-17T14:45:29.628Z,101014.66
2022-08-17T14:47:36.789Z,101007.47
2022-08-17T14:49:38.354Z,101009.03
2022-08-17T14:51:44.158Z,101008.84
2022-08-17T14:53:46.132Z,101009.34
2022-08-17T14:55:50.763Z,101002.72
2022-08-17T14:57:52.522Z,100997.78
2022-08-17T14:59:55.575Z,101004.88
2022-08-17T15:01:58.184Z,101009.63
2022-08-17T15:04:00.835Z,101004.50
2022-08-17T15:06:02.789Z,101000.25
2022-08-17T15:08:05.554Z,101000.25
2022-08-17T15:10:08.889Z,100998.91
2022-08-17T15:12:16.886Z,101003.31
2022-08-17T15:14:18.363Z,100998.03
2022-08-17T15:16:20.499Z,101004.69
2022-08-17T15:18:22.438Z,100997.03
2022-08-17T15:20:27.831Z,100989.19
2022-08-17T15:22:29.349Z,100993.44
2022-08-17T15:24:30.826Z,100994.41
2022-08-17T15:26:32.533Z,100985.06
2022-08-17T15:28:34.140Z,100986.03
2022-08-17T15:30:36.045Z,100991.63
2022-08-17T15:32:40.583Z,100998.81
2022-08-17T15:34:42.063Z,100996.94
2022-08-17T15:36:49.220Z,100998.94
2022-08-17T15:38:51.475Z,100996.38
2022-08-17T15:40:53.344Z,100996.88
2022-08-17T15:42:55.108Z,100997.88
2022-08-17T15:44:57.434Z,100992.41
2022-08-17T15:46:59.029Z,100989.50
2022-08-17T15:49:00.508Z,100987.28
2022-08-17T15:51:02.057Z,100989.97
2022-08-17T15:53:04.887Z,100994.03
2022-08-17T15:55:10.409Z,100987.50
2022-08-17T15:57:11.878Z,100981.88
2022-08-17T15:59:13.441Z,100987.50
2022-08-17T16:01:42.275Z,100983.47
2022-08-17T16:04:01.623Z,100980.03
2022-08-17T16:06:02.465Z,100967.72
2022-08-17T16:08:04.610Z,100971.78
2022-08-17T16:10:08.424Z,100961.22
2022-08-17T16:12:19.452Z,100967.16
2022-08-17T16:14:20.945Z,100964.22
2022-08-17T16:16:23.626Z,100969.16
2022-08-17T16:18:28.293Z,100977.03
2022-08-17T16:20:30.690Z,100973.91
2022-08-17T16:22:36.408Z,100980.63
2022-08-17T16:24:47.668Z,100983.81
2022-08-17T16:26:59.561Z,100985.69
2022-08-17T16:29:07.025Z,100985.28
2022-08-17T16:31:08.814Z,100981.41
2022-08-17T16:33:11.634Z,100980.69
2022-08-17T16:35:18.149Z,100978.38
2022-08-17T16:37:19.856Z,100981.25
2022-08-17T16:39:22.111Z,100969.59
2022-08-17T16:41:42.212Z,100979.13
2022-08-17T16:43:45.626Z,100974.75
2022-08-17T16:45:51.874Z,100977.03
2022-08-17T16:47:54.741Z,100982.09
2022-08-17T16:49:56.322Z,100981.13
2022-08-17T16:52:02.993Z,100974.06
2022-08-17T16:54:06.350Z,100977.47
2022-08-17T16:56:07.852Z,100971.06
2022-08-17T16:58:09.456Z,100969.63
2022-08-17T17:00:13.063Z,100966.81
2022-08-17T17:02:15.898Z,100967.78
2022-08-17T17:04:19.176Z,100967.16
2022-08-17T17:06:58.561Z,100966.03
2022-08-17T17:09:04.223Z,100975.59
2022-08-17T17:11:31.244Z,100967.66
2022-08-17T17:13:40.683Z,100995.72
2022-08-17T17:16:05.432Z,100999.97
2022-08-17T17:18:12.629Z,101024.25
2022-08-17T17:20:28.636Z,101032.38
2022-08-17T17:22:41.211Z,101029.66
2022-08-17T17:25:19.673Z,101036.53
2022-08-17T17:27:39.447Z,101034.69
2022-08-17T17:29:54.134Z,101032.69
2022-08-17T17:32:17.244Z,101022.81
2022-08-17T17:34:20.182Z,101018.09
2022-08-17T17:36:25.081Z,101021.53
2022-08-17T17:38:29.395Z,101029.66
2022-08-17T17:40:40.435Z,101033.78
2022-08-17T17:42:44.228Z,101038.91
2022-08-17T17:44:49.627Z,101046.03
2022-08-17T17:46:56.801Z,101039.19
2022-08-17T17:48:58.960Z,101043.19
2022-08-17T17:51:15.551Z,101043.19
2022-08-17T17:53:50.477Z,101043.75
2022-08-17T17:56:34.326Z,101042.31
2022-08-17T17:59:00.122Z,101041.97
2022-08-17T18:01:25.594Z,101046.34
2022-08-17T18:03:46.818Z,101040.16
2022-08-17T18:06:10.317Z,101043.00
2022-08-17T18:08:31.966Z,101045.00
2022-08-17T18:11:23.940Z,101046.69
2022-08-17T18:13:41.264Z,101043.56
2022-08-17T18:15:52.989Z,101042.25
2022-08-17T18:18:16.764Z,101039.78
2022-08-17T18:20:36.035Z,101045.75
2022-08-17T18:22:45.564Z,101051.66
2022-08-17T18:24:55.789Z,101050.81
2022-08-17T18:26:59.579Z,101056.66
2022-08-17T18:29:02.552Z,101057.28
2022-08-17T18:31:17.599Z,101061.06
2022-08-17T18:33:26.255Z,101052.75
2022-08-17T18:35:30.698Z,101047.84
2022-08-17T18:37:51.293Z,101046.13
2022-08-17T18:39:53.129Z,101046.75
2022-08-17T18:41:58.462Z,101053.38
2022-08-17T18:44:09.673Z,101056.94
2022-08-17T18:46:31.400Z,101051.28
2022-08-17T18:48:53.509Z,101047.75
2022-08-17T18:51:02.021Z,101055.13
2022-08-17T18:53:33.947Z,101052.53
2022-08-17T18:55:35.841Z,101056.97
2022-08-17T18:57:49.550Z,101066.91
2022-08-17T18:59:51.152Z,101072.56
2022-08-17T19:02:27.321Z,101070.38
2022-08-17T19:04:56.181Z,101079.13
2022-08-17T19:07:09.459Z,101065.72
2022-08-17T19:09:32.625Z,101074.22
2022-08-17T19:11:35.583Z,101070.53
2022-08-17T19:13:39.703Z,101070.66
2022-08-17T19:16:14.935Z,101066.25
2022-08-17T19:18:24.024Z,101061.22
2022-08-17T19:20:35.289Z,101071.44
2022-08-17T19:23:17.826Z,101072.66
2022-08-17T19:25:25.775Z,101073.78
2022-08-17T19:27:41.795Z,101075.88
2022-08-17T19:30:01.727Z,101073.56
2022-08-17T19:32:08.855Z,101072.59
2022-08-17T19:34:14.492Z,101065.59
2022-08-17T19:36:21.857Z,101065.34
2022-08-17T19:38:50.523Z,101058.63
2022-08-17T19:41:16.000Z,101065.72
2022-08-17T19:43:30.691Z,101067.81
2022-08-17T19:45:47.380Z,101063.53
2022-08-17T19:48:05.240Z,101064.03
2022-08-17T19:50:31.832Z,101056.19
2022-08-17T19:53:00.965Z,101061.91
2022-08-17T19:55:22.758Z,101058.59
2022-08-17T19:57:48.968Z,101064.25
2022-08-17T19:59:56.742Z,101061.78
2022-08-17T20:02:04.021Z,101063.41
2022-08-17T20:04:32.506Z,101057.88
2022-08-17T20:06:38.807Z,101050.97
2022-08-17T20:08:58.785Z,101047.63
2022-08-17T20:11:08.838Z,101048.00
2022-08-17T20:13:17.533Z,101054.72
2022-08-17T20:15:37.699Z,101052.16
2022-08-17T20:17:44.934Z,101054.84
2022-08-17T20:19:56.675Z,101052.63
2022-08-17T20:21:58.118Z,101061.81
2022-08-17T20:24:22.364Z,101055.28
2022-08-17T20:26:44.144Z,101057.72
2022-08-17T20:29:37.542Z,101066.94
2022-08-17T20:31:48.987Z,101076.78
2022-08-17T20:33:50.455Z,101081.38
2022-08-17T20:36:13.792Z,101079.75
2022-08-17T20:38:43.348Z,101075.88
2022-08-17T20:40:54.010Z,101077.25
2022-08-17T20:42:57.499Z,101073.56
2022-08-17T20:45:05.084Z,101070.25
2022-08-17T20:47:17.796Z,101081.25
2022-08-17T20:49:45.013Z,101078.91
2022-08-17T20:52:01.371Z,101083.34
2022-08-17T20:54:25.373Z,101085.75
2022-08-17T20:56:48.909Z,101083.28
2022-08-17T20:58:50.432Z,101088.66
2022-08-17T21:00:58.800Z,101095.75
2022-08-17T21:03:21.965Z,101097.19
2022-08-17T21:05:34.369Z,101104.41
2022-08-17T21:07:43.236Z,101101.19
2022-08-17T21:09:45.397Z,101103.56
2022-08-17T21:12:05.036Z,101108.09
2022-08-17T21:14:51.054Z,101118.16
2022-08-17T21:17:29.543Z,101119.59
2022-08-17T21:19:44.407Z,101128.72
2022-08-17T21:22:07.701Z,101121.94
2022-08-17T21:24:19.369Z,101128.06
2022-08-17T21:26:50.839Z,101122.91
2022-08-17T21:29:30.372Z,101116.78
2022-08-17T21:31:54.094Z,101120.56
2022-08-17T21:34:25.222Z,101123.25
2022-08-17T21:36:27.011Z,101131.31
2022-08-17T21:38:38.204Z,101132.16
2022-08-17T21:40:45.561Z,101129.69
2022-08-17T21:42:55.669Z,101136.44
2022-08-17T21:45:31.924Z,101142.34
2022-08-17T21:47:34.838Z,101135.34
2022-08-17T21:49:37.882Z,101125.25
2022-08-17T21:51:49.892Z,101127.50
2022-08-17T21:53:56.059Z,101129.13
2022-08-17T21:55:57.729Z,101129.13
2022-08-17T21:58:13.800Z,101141.59
2022-08-17T22:00:28.133Z,101132.78
2022-08-17T22:02:36.320Z,101134.69
2022-08-17T22:04:40.930Z,101141.69
2022-08-17T22:06:52.362Z,101141.59
2022-08-17T22:09:05.320Z,101133.72
2022-08-17T22:11:06.987Z,101132.56
2022-08-17T22:13:19.755Z,101132.34
2022-08-17T22:15:21.582Z,101139.53
2022-08-17T22:17:26.682Z,101140.19
2022-08-17T22:19:28.258Z,101140.94
2022-08-17T22:21:29.770Z,101133.63
2022-08-17T22:23:54.542Z,101126.97
2022-08-17T22:26:00.006Z,101130.19
2022-08-17T22:28:04.211Z,101129.91
2022-08-17T22:30:18.375Z,101132.59
2022-08-17T22:32:32.070Z,101134.31
2022-08-17T22:34:33.571Z,101138.38
2022-08-17T22:36:38.714Z,101131.50
2022-08-17T22:38:43.527Z,101133.22
2022-08-17T22:40:51.228Z,101132.25
2022-08-17T22:42:53.750Z,101133.00
2022-08-17T22:44:55.291Z,101124.75
2022-08-17T22:47:11.375Z,101127.22
2022-08-17T22:49:22.388Z,101122.13
2022-08-17T22:51:28.815Z,101124.06
2022-08-17T22:53:48.957Z,101124.19
2022-08-17T22:56:15.568Z,101122.47
2022-08-17T22:58:38.858Z,101130.53
2022-08-17T23:00:46.130Z,101130.72
2022-08-17T23:03:10.563Z,101126.31
2022-08-17T23:05:16.578Z,101118.16
2022-08-17T23:07:19.678Z,101123.53
2022-08-17T23:09:21.701Z,101121.91
2022-08-17T23:11:36.556Z,101105.91
2022-08-17T23:13:49.894Z,101118.69
2022-08-17T23:15:51.702Z,101117.94
2022-08-17T23:17:53.482Z,101121.50
2022-08-17T23:19:55.891Z,101108.28
2022-08-17T23:21:58.580Z,101106.78
2022-08-17T23:24:00.086Z,101110.53
2022-08-17T23:26:01.825Z,101115.16
2022-08-17T23:28:06.463Z,101111.81
2022-08-17T23:30:10.790Z,101121.91
2022-08-17T23:32:15.149Z,101118.47
2022-08-17T23:34:18.470Z,101121.81
2022-08-17T23:36:20.035Z,101133.50
2022-08-17T23:38:22.554Z,101121.47
2022-08-17T23:40:24.380Z,101132.81
2022-08-17T23:42:25.892Z,101127.97
2022-08-17T23:44:28.702Z,101128.44
2022-08-17T23:46:30.257Z,101135.72
2022-08-17T23:48:35.807Z,101138.50
2022-08-17T23:50:38.751Z,101133.34
2022-08-17T23:52:42.662Z,101132.38
2022-08-17T23:54:47.167Z,101129.59
2022-08-17T23:56:48.705Z,101126.06
2022-08-17T23:58:51.452Z,101114.38
